Time;durP1;ratioP1;P1;durP2;ratioP2;P2;SDS_P1;SDS_P2;PMS_P1;PMS_P2;Temp;Humidity;BMP_temperature;BMP_pressure;BME280_temperature;BME280_humidity;BME280_pressure;Samples;Min_cycle;Max_cycle;Signal;HPM_P1;HPM_P2
2022/11/27 00:00:51;;;;;;;;;;;;;;;-5.30;76.79;101452.84;6123506;23;19920;-70
2022/11/27 00:03:17;;;;;;;;;;;;;;;-5.33;76.95;101450.41;6151718;23;20269;-69
2022/11/27 00:05:50;;;;;;;;;;;;;;;-5.29;77.29;101454.53;6177340;23;20370;-69
2022/11/27 00:08:17;;;;;;;;;;;;;;;-5.22;76.92;101448.66;6175771;23;20003;-70
2022/11/27 00:10:42;;;;;;;;;;;;;;;-5.12;76.83;101454.91;6176155;23;19920;-70
2022/11/27 00:13:08;;;;;;;;;;;;;;;-5.07;76.73;101452.69;6149262;23;20260;-70
2022/11/27 00:15:34;;;;;;;;;;;;;;;-5.09;76.60;101451.97;6177948;23;19920;-71
2022/11/27 00:17:59;;;;;;;;;;;;;;;-5.08;76.62;101455.47;6176590;23;20008;-70
2022/11/27 00:20:25;;;;;;;;;;;;;;;-5.08;76.51;101452.81;6184392;23;20030;-70
2022/11/27 00:22:51;;;;;;;;;;;;;;;-5.11;76.64;101445.94;6160634;23;19920;-70
2022/11/27 00:25:18;;;;;;;;;;;;;;;-5.06;76.55;101450.88;6160679;23;19920;-71
2022/11/27 00:27:44;;;;;;;;;;;;;;;-5.08;76.69;101452.81;6188911;23;19920;-70
2022/11/27 00:30:10;;;;;;;;;;;;;;;-5.09;76.77;101451.97;6128028;23;19970;-68
2022/11/27 00:32:36;;;;;;;;;;;;;;;-5.02;76.90;101455.81;6189733;23;19920;-67
2022/11/27 00:35:02;;;;;;;;;;;;;;;-5.05;76.64;101461.41;6177114;23;19970;-70
2022/11/27 00:37:29;;;;;;;;;;;;;;;-5.08;76.73;101464.34;6126746;23;19986;-71
2022/11/27 00:39:54;;;;;;;;;;;;;;;-5.25;76.98;101446.28;6163843;23;20011;-70
2022/11/27 00:42:21;;;;;;;;;;;;;;;-5.18;77.38;101464.28;6187532;23;19973;-70
2022/11/27 00:44:47;;;;;;;;;;;;;;;-5.09;77.20;101461.78;6211900;23;19943;-70
2022/11/27 00:47:13;;;;;;;;;;;;;;;-5.08;77.18;101458.16;6184314;23;20011;-70
2022/11/27 00:49:38;;;;;;;;;;;;;;;-4.98;77.31;101459.06;6175918;23;19924;-67
2022/11/27 00:52:04;;;;;;;;;;;;;;;-4.94;76.63;101454.31;6174775;23;19978;-66
2022/11/27 00:54:30;;;;;;;;;;;;;;;-5.00;76.72;101453.00;6149004;23;19927;-66
2022/11/27 00:56:55;;;;;;;;;;;;;;;-5.01;76.92;101451.31;6151516;23;19990;-67
2022/11/27 00:59:23;;;;;;;;;;;;;;;-5.03;77.05;101448.78;6184817;23;19927;-66
2022/11/27 01:01:48;;;;;;;;;;;;;;;-5.04;77.15;101441.75;6188597;23;19959;-66
2022/11/27 01:04:14;;;;;;;;;;;;;;;-5.08;77.20;101443.00;6186664;23;19919;-66
2022/11/27 01:06:40;;;;;;;;;;;;;;;-5.11;77.50;101448.59;6185698;23;19920;-66
2022/11/27 01:09:06;;;;;;;;;;;;;;;-5.14;77.75;101454.22;6173677;23;19943;-66
2022/11/27 01:11:33;;;;;;;;;;;;;;;-5.16;77.69;101454.31;6197238;23;19977;-66
2022/11/27 01:13:59;;;;;;;;;;;;;;;-5.14;77.82;101448.88;6157061;23;20361;-66
2022/11/27 01:16:28;;;;;;;;;;;;;;;-5.10;77.80;101447.63;6186053;23;20359;-66
2022/11/27 01:18:56;;;;;;;;;;;;;;;-5.13;77.97;101448.72;6147797;23;20426;-67
2022/11/27 01:21:22;;;;;;;;;;;;;;;-5.12;78.18;101442.41;6125021;23;20027;-66
2022/11/27 01:23:48;;;;;;;;;;;;;;;-5.10;78.18;101452.09;6187255;23;20348;-67
2022/11/27 01:26:14;;;;;;;;;;;;;;;-5.14;78.09;101449.72;6150392;23;19958;-70
2022/11/27 01:28:40;;;;;;;;;;;;;;;-5.19;78.37;101443.06;6187532;23;19920;-70
2022/11/27 01:31:07;;;;;;;;;;;;;;;-5.17;78.49;101451.78;6185994;23;19927;-70
2022/11/27 01:33:34;;;;;;;;;;;;;;;-5.07;78.61;101442.03;6177427;23;19958;-70
2022/11/27 01:36:01;;;;;;;;;;;;;;;-5.03;78.02;101447.94;6175718;23;19920;-70
2022/11/27 01:38:28;;;;;;;;;;;;;;;-5.08;78.38;101443.00;6189047;23;19943;-70
2022/11/27 01:40:57;;;;;;;;;;;;;;;-5.15;78.48;101436.47;6158205;23;19966;-70
2022/11/27 01:43:36;;;;;;;;;;;;;;;-5.04;78.23;101448.94;6160680;23;19920;-70
2022/11/27 01:46:02;;;;;;;;;;;;;;;-5.07;78.29;101449.16;6186438;23;20032;-70
2022/11/27 01:48:28;;;;;;;;;;;;;;;-5.04;78.61;101451.59;6150995;23;19986;-69
2022/11/27 01:50:55;;;;;;;;;;;;;;;-5.04;78.42;101452.44;6186178;23;19920;-69
2022/11/27 01:53:21;;;;;;;;;;;;;;;-5.01;78.68;101454.00;6187054;23;19966;-70
2022/11/27 01:55:49;;;;;;;;;;;;;;;-5.02;78.70;101450.47;6188757;23;19923;-70
2022/11/27 01:58:18;;;;;;;;;;;;;;;-5.00;78.84;101448.50;6186636;23;20332;-70
2022/11/27 02:00:43;;;;;;;;;;;;;;;-4.98;78.47;101448.38;6186790;23;20395;-70
2022/11/27 02:03:09;;;;;;;;;;;;;;;-4.96;78.51;101453.59;6149721;23;19956;-69
2022/11/27 02:05:35;;;;;;;;;;;;;;;-4.96;78.52;101450.94;6147935;23;19920;-69
2022/11/27 02:08:05;;;;;;;;;;;;;;;-4.93;78.63;101458.69;6146315;23;19931;-69
2022/11/27 02:10:35;;;;;;;;;;;;;;;-5.02;78.66;101450.47;6174479;23;19920;-69
2022/11/27 02:13:03;;;;;;;;;;;;;;;-5.08;79.25;101456.34;6186321;23;19920;-70
2022/11/27 02:15:33;;;;;;;;;;;;;;;-5.03;79.22;101453.28;6187640;23;20419;-69
2022/11/27 02:18:02;;;;;;;;;;;;;;;-4.96;79.08;101454.44;6187453;23;19919;-70
2022/11/27 02:20:34;;;;;;;;;;;;;;;-5.22;79.07;101414.84;6178106;23;19927;-70
2022/11/27 02:23:12;;;;;;;;;;;;;;;-5.08;79.20;101459.00;6176562;23;19927;-70
2022/11/27 02:25:43;;;;;;;;;;;;;;;-5.00;79.60;101455.69;6178002;23;20346;-70
2022/11/27 02:28:19;;;;;;;;;;;;;;;-4.91;79.56;101460.25;6163699;23;19924;-69
2022/11/27 02:30:49;;;;;;;;;;;;;;;-4.89;79.46;101465.44;6189795;23;19920;-69
2022/11/27 02:33:18;;;;;;;;;;;;;;;-4.88;79.39;101470.66;6187673;23;19920;-69
2022/11/27 02:35:47;;;;;;;;;;;;;;;-5.09;79.54;101429.78;6160819;23;19952;-70
2022/11/27 02:38:14;;;;;;;;;;;;;;;-4.90;79.32;101466.41;6159664;23;19962;-69
2022/11/27 02:40:44;;;;;;;;;;;;;;;-4.94;79.51;101470.31;6175839;23;19920;-70
2022/11/27 02:43:11;;;;;;;;;;;;;;;-4.89;79.64;101463.63;6201387;23;19924;-70
2022/11/27 02:45:39;;;;;;;;;;;;;;;-4.89;79.30;101468.09;6186939;23;19927;-66
2022/11/27 02:48:07;;;;;;;;;;;;;;;-4.89;79.58;101473.44;6186114;23;20053;-66
2022/11/27 02:50:34;;;;;;;;;;;;;;;-4.91;79.40;101472.72;6186705;23;19920;-66
2022/11/27 02:53:02;;;;;;;;;;;;;;;-4.98;79.55;101464.41;6177687;23;19927;-66
2022/11/27 02:55:30;;;;;;;;;;;;;;;-4.92;79.57;101469.19;6150281;23;19966;-66
2022/11/27 02:57:58;;;;;;;;;;;;;;;-4.94;79.35;101465.81;6151883;23;20300;-66
2022/11/27 03:00:24;;;;;;;;;;;;;;;-4.96;79.07;101465.09;6160102;23;20010;-66
2022/11/27 03:02:51;;;;;;;;;;;;;;;-4.94;79.03;101476.50;6187840;23;20327;-66
2022/11/27 03:05:20;;;;;;;;;;;;;;;-4.89;79.11;101478.78;6187489;23;20340;-66
2022/11/27 03:07:47;;;;;;;;;;;;;;;-4.79;78.93;101477.00;6175253;23;19940;-66
2022/11/27 03:10:18;;;;;;;;;;;;;;;-4.73;78.48;101478.31;6189586;23;19920;-66
2022/11/27 03:12:43;;;;;;;;;;;;;;;-4.72;78.05;101480.81;6178408;23;19920;-65
2022/11/27 03:15:09;;;;;;;;;;;;;;;-4.66;77.86;101482.13;6152812;23;20375;-66
2022/11/27 03:17:40;;;;;;;;;;;;;;;-4.70;77.08;101472.69;6187068;23;19927;-66
2022/11/27 03:20:09;;;;;;;;;;;;;;;-4.79;77.06;101481.50;6152158;23;19920;-66
2022/11/27 03:22:36;;;;;;;;;;;;;;;-4.82;77.00;101474.63;6174759;23;19920;-67
2022/11/27 03:25:02;;;;;;;;;;;;;;;-4.85;77.14;101483.72;6152966;23;19927;-66
2022/11/27 03:27:32;;;;;;;;;;;;;;;-4.82;77.03;101479.09;6177453;23;19920;-66
2022/11/27 03:29:59;;;;;;;;;;;;;;;-4.78;76.76;101486.72;6177868;23;19999;-66
2022/11/27 03:32:25;;;;;;;;;;;;;;;-4.75;76.66;101483.78;6175602;23;19926;-66
2022/11/27 03:34:51;;;;;;;;;;;;;;;-4.72;76.51;101483.50;6151020;23;19927;-67
2022/11/27 03:37:17;;;;;;;;;;;;;;;-4.66;76.55;101486.63;6179199;23;19920;-67
2022/11/27 03:39:44;;;;;;;;;;;;;;;-4.59;76.56;101487.78;6176783;23;20400;-67
2022/11/27 03:42:13;;;;;;;;;;;;;;;-4.50;76.08;101478.13;6184910;23;20282;-70
2022/11/27 03:44:42;;;;;;;;;;;;;;;-4.57;75.89;101484.00;6161899;23;19971;-70
2022/11/27 03:47:11;;;;;;;;;;;;;;;-4.62;76.18;101483.53;6150212;23;19920;-70
2022/11/27 03:49:43;;;;;;;;;;;;;;;-4.56;76.17;101475.00;6175943;23;19920;-70
2022/11/27 03:52:13;;;;;;;;;;;;;;;-4.51;75.91;101476.44;6188027;23;19951;-70
2022/11/27 03:54:43;;;;;;;;;;;;;;;-4.56;75.99;101471.47;6181307;23;19920;-70
2022/11/27 03:57:13;;;;;;;;;;;;;;;-4.50;76.00;101472.78;6152054;23;19931;-69
2022/11/27 03:59:42;;;;;;;;;;;;;;;-4.52;75.90;101466.72;6178208;23;20200;-69
2022/11/27 04:02:10;;;;;;;;;;;;;;;-4.54;75.97;101471.38;6151843;23;20260;-69
2022/11/27 04:04:36;;;;;;;;;;;;;;;-4.57;75.90;101469.78;6187743;23;20015;-70
2022/11/27 04:07:01;;;;;;;;;;;;;;;-4.54;75.93;101472.19;6158675;23;19939;-69
2022/11/27 04:09:27;;;;;;;;;;;;;;;-4.58;76.07;101465.44;6177683;23;19920;-70
2022/11/27 04:11:53;;;;;;;;;;;;;;;-4.54;76.19;101468.69;6186727;23;19920;-70
2022/11/27 04:14:20;;;;;;;;;;;;;;;-4.50;75.94;101470.97;6178676;23;19927;-69
2022/11/27 04:16:45;;;;;;;;;;;;;;;-4.54;75.90;101469.53;6184646;23;19920;-69
2022/11/27 04:19:11;;;;;;;;;;;;;;;-4.55;75.97;101465.16;6178377;23;19920;-70
2022/11/27 04:21:37;;;;;;;;;;;;;;;-4.46;76.08;101472.38;6152329;23;19920;-70
2022/11/27 04:24:03;;;;;;;;;;;;;;;-4.46;75.98;101475.03;6187921;23;19970;-66
2022/11/27 04:26:28;;;;;;;;;;;;;;;-4.49;75.72;101471.78;6189400;23;20003;-66
2022/11/27 04:28:54;;;;;;;;;;;;;;;-4.53;76.08;101481.06;6150869;23;19924;-66
2022/11/27 04:31:21;;;;;;;;;;;;;;;-4.51;76.35;101471.09;6187369;23;19927;-66
2022/11/27 04:33:47;;;;;;;;;;;;;;;-4.50;76.13;101468.28;6149708;23;19947;-66
2022/11/27 04:36:13;;;;;;;;;;;;;;;-4.48;76.15;101481.50;6132007;23;20379;-67
2022/11/27 04:38:38;;;;;;;;;;;;;;;-4.51;76.14;101479.97;6152351;23;19924;-66
2022/11/27 04:41:04;;;;;;;;;;;;;;;-4.51;76.38;101476.44;6186540;23;20027;-67
2022/11/27 04:43:30;;;;;;;;;;;;;;;-4.43;76.33;101481.97;6189682;23;19927;-70
2022/11/27 04:45:56;;;;;;;;;;;;;;;-4.42;76.18;101480.97;6177708;23;19919;-70
2022/11/27 04:48:23;;;;;;;;;;;;;;;-4.44;76.34;101485.59;6175539;23;19944;-70
2022/11/27 04:50:48;;;;;;;;;;;;;;;-4.44;76.22;101478.44;6147219;23;20382;-70
2022/11/27 04:53:14;;;;;;;;;;;;;;;-4.44;76.46;101488.28;6184326;23;20003;-70
2022/11/27 04:55:40;;;;;;;;;;;;;;;-4.41;76.33;101490.69;6162483;23;19919;-71
2022/11/27 04:58:05;;;;;;;;;;;;;;;-4.39;76.33;101487.84;6188509;23;20004;-70
2022/11/27 05:00:31;;;;;;;;;;;;;;;-4.34;76.34;101482.97;6159865;23;20267;-70
2022/11/27 05:02:57;;;;;;;;;;;;;;;-4.29;76.22;101489.59;6148640;23;19920;-70
2022/11/27 05:05:24;;;;;;;;;;;;;;;-4.30;76.17;101493.22;6183887;23;20041;-70
2022/11/27 05:07:49;;;;;;;;;;;;;;;-4.31;76.24;101486.19;6187238;23;19990;-70
2022/11/27 05:10:15;;;;;;;;;;;;;;;-4.26;76.11;101488.47;6185099;23;20344;-70
2022/11/27 05:12:41;;;;;;;;;;;;;;;-4.28;76.18;101496.63;6188203;23;19920;-70
2022/11/27 05:15:07;;;;;;;;;;;;;;;-4.34;76.56;101499.81;6181492;23;19920;-70
2022/11/27 05:17:33;;;;;;;;;;;;;;;-4.33;76.63;101490.84;6186934;23;20354;-71
2022/11/27 05:19:58;;;;;;;;;;;;;;;-4.26;76.64;101493.81;6178712;23;19924;-71
2022/11/27 05:22:26;;;;;;;;;;;;;;;-4.22;76.84;101497.88;6174822;23;20351;-70
2022/11/27 05:24:51;;;;;;;;;;;;;;;-4.20;76.99;101495.94;6175967;23;19920;-71
2022/11/27 05:27:17;;;;;;;;;;;;;;;-4.16;77.35;101491.16;6185389;23;19967;-70
2022/11/27 05:29:43;;;;;;;;;;;;;;;-4.13;77.44;101494.41;6177873;23;19920;-70
2022/11/27 05:32:08;;;;;;;;;;;;;;;-4.09;77.22;101495.00;6207600;23;19993;-71
2022/11/27 05:34:34;;;;;;;;;;;;;;;-4.13;77.46;101498.94;6178825;23;19940;-70
2022/11/27 05:37:00;;;;;;;;;;;;;;;-4.11;77.78;101504.13;6210164;23;19920;-70
2022/11/27 05:39:27;;;;;;;;;;;;;;;-4.09;78.04;101502.16;6158953;23;19919;-70
2022/11/27 05:41:53;;;;;;;;;;;;;;;-4.05;78.06;101504.41;6185911;23;19936;-71
2022/11/27 05:44:18;;;;;;;;;;;;;;;-4.02;77.93;101504.16;6183906;23;20271;-73
2022/11/27 05:46:44;;;;;;;;;;;;;;;-4.05;78.08;101507.09;6176043;23;19947;-71
2022/11/27 05:49:11;;;;;;;;;;;;;;;-4.05;78.26;101509.75;6126742;23;20268;-70
2022/11/27 05:51:37;;;;;;;;;;;;;;;-4.04;78.46;101508.78;6180481;23;19920;-70
2022/11/27 05:54:03;;;;;;;;;;;;;;;-4.00;78.72;101506.69;6147839;23;20367;-71
2022/11/27 05:56:30;;;;;;;;;;;;;;;-3.99;78.57;101505.72;6188108;23;19924;-71
2022/11/27 05:58:55;;;;;;;;;;;;;;;-3.96;78.68;101512.63;6189126;23;19920;-71
2022/11/27 06:01:21;;;;;;;;;;;;;;;-3.91;78.45;101510.38;6128653;23;19926;-71
2022/11/27 06:03:47;;;;;;;;;;;;;;;-3.91;78.54;101513.88;6189292;23;19920;-70
2022/11/27 06:06:14;;;;;;;;;;;;;;;-3.88;78.60;101513.63;6187786;23;19920;-71
2022/11/27 06:08:40;;;;;;;;;;;;;;;-3.86;78.47;101508.13;6181105;23;19970;-71
2022/11/27 06:11:07;;;;;;;;;;;;;;;-3.88;78.64;101513.63;6182174;23;19920;-71
2022/11/27 06:13:34;;;;;;;;;;;;;;;-3.89;78.76;101511.94;6179825;23;20033;-71
2022/11/27 06:16:02;;;;;;;;;;;;;;;-3.87;78.89;101517.13;6177820;23;19920;-71
2022/11/27 06:18:28;;;;;;;;;;;;;;;-3.87;78.82;101522.47;6181306;23;19966;-71
2022/11/27 06:20:54;;;;;;;;;;;;;;;-3.88;78.62;101510.94;6181559;23;19920;-67
2022/11/27 06:23:21;;;;;;;;;;;;;;;-3.88;78.67;101523.44;6179365;23;19920;-68
2022/11/27 06:25:46;;;;;;;;;;;;;;;-3.86;78.69;101503.63;6186388;23;19927;-68
2022/11/27 06:28:12;;;;;;;;;;;;;;;-3.73;78.57;101511.38;6187903;23;19920;-67
2022/11/27 06:30:39;;;;;;;;;;;;;;;-3.72;78.39;101507.72;6187419;23;19924;-68
2022/11/27 06:33:05;;;;;;;;;;;;;;;-3.68;78.26;101508.28;6161300;23;20336;-67
2022/11/27 06:35:31;;;;;;;;;;;;;;;-3.65;78.38;101507.19;6208038;23;19974;-67
2022/11/27 06:37:56;;;;;;;;;;;;;;;-3.64;78.09;101516.88;6186257;23;20259;-67
2022/11/27 06:40:22;;;;;;;;;;;;;;;-3.66;77.91;101511.66;6186587;23;19969;-67
2022/11/27 06:42:48;;;;;;;;;;;;;;;-3.61;78.01;101513.94;6161466;23;19955;-67
2022/11/27 06:45:14;;;;;;;;;;;;;;;-3.63;77.86;101516.72;6187907;23;19920;-67
2022/11/27 06:47:41;;;;;;;;;;;;;;;-3.66;77.91;101514.34;6202017;23;19923;-71
2022/11/27 06:50:07;;;;;;;;;;;;;;;-3.59;78.08;101510.16;6190124;23;19924;-71
2022/11/27 06:52:33;;;;;;;;;;;;;;;-3.51;77.84;101513.94;6190885;23;19920;-71
2022/11/27 06:54:59;;;;;;;;;;;;;;;-3.44;77.80;101515.91;6177579;23;20021;-71
2022/11/27 06:57:24;;;;;;;;;;;;;;;-3.47;77.72;101510.84;6176165;23;19926;-71
2022/11/27 06:59:50;;;;;;;;;;;;;;;-3.47;77.75;101510.84;6176792;23;19920;-71
2022/11/27 07:02:16;;;;;;;;;;;;;;;-3.46;77.47;101522.38;6178201;23;19974;-71
2022/11/27 07:04:44;;;;;;;;;;;;;;;-3.48;77.70;101522.53;6186415;23;20401;-71
2022/11/27 07:07:09;;;;;;;;;;;;;;;-3.43;77.65;101525.63;6185581;23;19928;-71
2022/11/27 07:09:35;;;;;;;;;;;;;;;-3.36;77.61;101523.22;6150006;23;19951;-71
2022/11/27 07:12:02;;;;;;;;;;;;;;;-3.33;77.37;101528.31;6212045;23;20332;-71
2022/11/27 07:14:28;;;;;;;;;;;;;;;-3.33;77.10;101527.47;6187477;23;20400;-70
2022/11/27 07:16:54;;;;;;;;;;;;;;;-3.32;77.32;101534.50;6188008;23;20012;-70
2022/11/27 07:19:20;;;;;;;;;;;;;;;-3.30;77.32;101529.84;6176998;23;19920;-71
2022/11/27 07:21:47;;;;;;;;;;;;;;;-3.19;77.30;101529.72;6191186;23;20045;-72
2022/11/27 07:24:12;;;;;;;;;;;;;;;-3.17;76.85;101538.44;6176743;23;19947;-71
2022/11/27 07:26:38;;;;;;;;;;;;;;;-3.09;76.86;101527.03;6185704;23;20232;-71
2022/11/27 07:29:05;;;;;;;;;;;;;;;-3.06;76.85;101528.56;6175565;23;19920;-71
2022/11/27 07:31:31;;;;;;;;;;;;;;;-3.06;76.83;101526.75;6160304;23;19995;-71
2022/11/27 07:33:57;;;;;;;;;;;;;;;-3.07;76.76;101522.38;6185376;23;19947;-71
2022/11/27 07:36:24;;;;;;;;;;;;;;;-3.09;76.76;101519.00;6146318;23;19925;-67
2022/11/27 07:38:51;;;;;;;;;;;;;;;-3.07;76.99;101527.72;6184071;23;19947;-67
2022/11/27 07:41:17;;;;;;;;;;;;;;;-3.03;76.81;101525.63;6184800;23;19939;-67
2022/11/27 07:43:43;;;;;;;;;;;;;;;-3.02;76.82;101524.63;6157921;23;19927;-67
2022/11/27 07:46:10;;;;;;;;;;;;;;;-2.99;76.77;101519.00;6186538;23;19978;-68
2022/11/27 07:48:36;;;;;;;;;;;;;;;-2.93;76.71;101517.56;6185588;23;19919;-67
2022/11/27 07:51:04;;;;;;;;;;;;;;;-2.88;76.70;101516.16;6184204;23;19978;-71
2022/11/27 07:53:30;;;;;;;;;;;;;;;-2.86;76.64;101522.22;6172004;23;19923;-67
2022/11/27 07:55:59;;;;;;;;;;;;;;;-2.91;76.64;101516.44;6181578;23;19977;-71
2022/11/27 07:58:25;;;;;;;;;;;;;;;-3.00;77.29;101522.66;6173000;23;20289;-71
2022/11/27 08:00:51;;;;;;;;;;;;;;;-2.93;77.36;101520.25;6156176;23;20084;-70
2022/11/27 08:03:17;;;;;;;;;;;;;;;-2.91;77.35;101512.91;6174301;23;19920;-71
2022/11/27 08:05:44;;;;;;;;;;;;;;;-2.85;77.36;101518.53;6188030;23;20352;-67
2022/11/27 08:08:11;;;;;;;;;;;;;;;-2.81;77.21;101516.44;6183136;23;19924;-71
2022/11/27 08:10:37;;;;;;;;;;;;;;;-2.74;77.32;101525.56;6121907;23;20094;-67
2022/11/27 08:13:05;;;;;;;;;;;;;;;-2.64;77.22;101512.13;6175069;23;19994;-67
2022/11/27 08:15:31;;;;;;;;;;;;;;;-2.56;77.01;101514.09;6158093;23;19927;-67
2022/11/27 08:17:57;;;;;;;;;;;;;;;-2.49;76.64;101515.22;6205970;23;19966;-67
2022/11/27 08:20:23;;;;;;;;;;;;;;;-2.50;76.53;101524.22;6146716;23;20190;-67
2022/11/27 08:22:49;;;;;;;;;;;;;;;-2.47;76.51;101507.88;6183484;23;19924;-71
2022/11/27 08:25:15;;;;;;;;;;;;;;;-2.26;76.36;101508.59;6149368;23;19966;-67
2022/11/27 08:27:41;;;;;;;;;;;;;;;-2.22;76.13;101516.22;6146955;23;19919;-68
2022/11/27 08:30:09;;;;;;;;;;;;;;;-2.15;76.16;101514.63;6170869;23;20018;-68
2022/11/27 08:32:37;;;;;;;;;;;;;;;-2.19;76.39;101507.88;6182831;23;19927;-67
2022/11/27 08:35:03;;;;;;;;;;;;;;;-2.18;76.38;101509.59;6186946;23;19933;-67
2022/11/27 08:37:29;;;;;;;;;;;;;;;-2.17;76.70;101505.06;6200634;23;19928;-67
2022/11/27 08:39:55;;;;;;;;;;;;;;;-2.21;76.50;101503.66;6158494;23;20260;-67
2022/11/27 08:42:20;;;;;;;;;;;;;;;-2.08;76.58;101511.34;6186430;23;19931;-67
2022/11/27 08:44:46;;;;;;;;;;;;;;;-2.02;76.08;101506.25;6115734;23;19931;-68
2022/11/27 08:47:15;;;;;;;;;;;;;;;-1.98;75.81;101501.44;6118122;23;19931;-67
2022/11/27 08:49:42;;;;;;;;;;;;;;;-1.88;75.51;101504.03;6155576;23;19927;-67
2022/11/27 08:52:08;;;;;;;;;;;;;;;-1.81;75.32;101502.44;6145807;23;19920;-71
2022/11/27 08:54:33;;;;;;;;;;;;;;;-1.72;74.73;101501.53;6145024;23;20316;-67
2022/11/27 08:56:59;;;;;;;;;;;;;;;-1.74;74.33;101503.53;6181463;23;20267;-69
2022/11/27 08:59:25;;;;;;;;;;;;;;;-1.64;74.34;101502.59;6202223;23;19948;-67
2022/11/27 09:01:51;;;;;;;;;;;;;;;-1.64;74.26;101508.81;6150641;23;19951;-67
2022/11/27 09:04:19;;;;;;;;;;;;;;;-1.67;74.04;101509.13;6144993;23;20266;-71
2022/11/27 09:06:45;;;;;;;;;;;;;;;-1.73;73.95;101507.91;6137666;23;19920;-71
2022/11/27 09:09:11;;;;;;;;;;;;;;;-1.78;74.25;101501.31;6183895;23;19954;-70
2022/11/27 09:11:37;;;;;;;;;;;;;;;-1.81;74.70;101502.44;6174465;23;19920;-70
2022/11/27 09:14:04;;;;;;;;;;;;;;;-1.75;74.44;101509.91;6183544;23;19988;-71
2022/11/27 09:16:30;;;;;;;;;;;;;;;-1.73;74.57;101509.72;6172363;23;20332;-71
2022/11/27 09:18:56;;;;;;;;;;;;;;;-1.65;74.61;101507.13;6170870;23;19982;-71
2022/11/27 09:21:29;;;;;;;;;;;;;;;-1.52;74.33;101511.28;6181886;23;20367;-71
2022/11/27 09:23:55;;;;;;;;;;;;;;;-1.53;74.18;101504.25;6208110;23;19943;-71
2022/11/27 09:26:22;;;;;;;;;;;;;;;-1.58;74.03;101499.31;6186234;23;20300;-71
2022/11/27 09:28:48;;;;;;;;;;;;;;;-1.58;74.18;101485.91;6183764;23;20256;-70
2022/11/27 09:31:14;;;;;;;;;;;;;;;-1.62;74.21;101504.16;6175694;23;19944;-67
2022/11/27 09:33:41;;;;;;;;;;;;;;;-1.69;74.38;101497.72;6183615;23;19927;-67
2022/11/27 09:36:08;;;;;;;;;;;;;;;-1.68;74.65;101498.53;6181860;23;19999;-67
2022/11/27 09:38:36;;;;;;;;;;;;;;;-1.65;74.56;101496.41;6144358;23;19924;-70
2022/11/27 09:41:05;;;;;;;;;;;;;;;-1.60;74.67;101487.91;6173266;23;19920;-71
2022/11/27 09:43:34;;;;;;;;;;;;;;;-1.64;74.27;101494.56;6183647;23;19927;-71
2022/11/27 09:46:06;;;;;;;;;;;;;;;-1.72;74.74;101498.00;6142485;23;20018;-71
2022/11/27 09:48:33;;;;;;;;;;;;;;;-1.75;74.74;101493.81;6171914;23;19999;-71
2022/11/27 09:51:00;;;;;;;;;;;;;;;-1.78;75.10;101499.47;6171317;23;20330;-71
2022/11/27 09:53:29;;;;;;;;;;;;;;;-1.72;75.21;101498.00;6173069;23;19947;-71
2022/11/27 09:55:58;;;;;;;;;;;;;;;-1.60;75.22;101502.16;6183161;23;19942;-70
2022/11/27 09:58:29;;;;;;;;;;;;;;;-1.53;75.11;101501.56;6181462;23;19926;-67
2022/11/27 10:00:55;;;;;;;;;;;;;;;-1.57;74.88;101493.78;6119583;23;19920;-67
2022/11/27 10:03:24;;;;;;;;;;;;;;;-1.55;74.90;101496.34;6179934;23;20454;-71
2022/11/27 10:05:56;;;;;;;;;;;;;;;-1.40;74.75;101496.66;6145737;23;19920;-71
2022/11/27 10:08:27;;;;;;;;;;;;;;;-1.20;74.45;101494.63;6146861;23;19926;-71
2022/11/27 10:11:05;;;;;;;;;;;;;;;-1.02;73.67;101501.81;6170759;23;19920;-71
2022/11/27 10:13:46;;;;;;;;;;;;;;;-0.96;73.49;101506.56;6179961;23;19935;-71
2022/11/27 10:16:17;;;;;;;;;;;;;;;-0.91;72.90;101509.63;6144191;23;19920;-72
2022/11/27 10:18:46;;;;;;;;;;;;;;;-0.86;72.74;101501.09;6171664;23;20303;-71
2022/11/27 10:21:14;;;;;;;;;;;;;;;-0.89;72.50;101510.28;6183415;23;19944;-71
2022/11/27 10:23:44;;;;;;;;;;;;;;;-1.05;72.80;101507.50;6182205;23;19943;-71
2022/11/27 10:26:14;;;;;;;;;;;;;;;-1.18;72.94;101503.34;6181885;23;20336;-71
2022/11/27 10:28:43;;;;;;;;;;;;;;;-1.26;73.20;101508.69;6169114;23;20372;-71
2022/11/27 10:31:11;;;;;;;;;;;;;;;-1.30;73.20;101501.94;6179507;23;20375;-71
2022/11/27 10:33:39;;;;;;;;;;;;;;;-1.24;73.31;101506.69;6145721;23;19920;-71
2022/11/27 10:36:10;;;;;;;;;;;;;;;-1.20;72.94;101510.72;6137593;23;19920;-71
2022/11/27 10:38:38;;;;;;;;;;;;;;;-1.20;73.02;101515.28;6142918;23;19969;-71
2022/11/27 10:41:06;;;;;;;;;;;;;;;-1.29;72.85;101517.88;6179053;23;19920;-71
2022/11/27 10:43:35;;;;;;;;;;;;;;;-1.39;73.35;101516.28;6156367;23;20410;-70
2022/11/27 10:46:03;;;;;;;;;;;;;;;-1.40;73.12;101517.28;6172690;23;20370;-71
2022/11/27 10:48:29;;;;;;;;;;;;;;;-1.44;73.33;101514.03;6173839;23;20326;-67
2022/11/27 10:50:55;;;;;;;;;;;;;;;-1.41;73.33;101508.34;6185425;23;19966;-71
2022/11/27 10:53:25;;;;;;;;;;;;;;;-1.43;73.08;101507.69;6143454;23;19924;-67
2022/11/27 10:56:09;;;;;;;;;;;;;;;-1.54;73.26;101518.66;6145490;23;19924;-68
2022/11/27 10:58:40;;;;;;;;;;;;;;;-1.86;73.64;101494.88;6172230;23;19950;-67
2022/11/27 11:01:07;;;;;;;;;;;;;;;-1.74;74.01;101522.31;6147558;23;19920;-67
2022/11/27 11:03:33;;;;;;;;;;;;;;;-1.74;74.32;101516.09;6174982;23;19967;-67
2022/11/27 11:06:01;;;;;;;;;;;;;;;-1.76;73.95;101504.66;6146394;23;19930;-67
2022/11/27 11:08:28;;;;;;;;;;;;;;;-1.81;73.99;101510.47;6186403;23;19924;-67
2022/11/27 11:10:57;;;;;;;;;;;;;;;-1.88;74.40;101514.78;6145408;23;19920;-67
2022/11/27 11:13:26;;;;;;;;;;;;;;;-1.99;74.50;101513.16;6184917;23;19920;-70
2022/11/27 11:15:55;;;;;;;;;;;;;;;-2.06;74.90;101507.53;6173264;23;19920;-71
2022/11/27 11:18:22;;;;;;;;;;;;;;;-2.08;74.87;101512.22;6171402;23;19974;-71
2022/11/27 11:20:50;;;;;;;;;;;;;;;-2.14;75.25;101513.66;6148053;23;20135;-71
2022/11/27 11:23:19;;;;;;;;;;;;;;;-2.21;75.33;101511.72;6181021;23;19951;-71
2022/11/27 11:25:48;;;;;;;;;;;;;;;-2.20;75.62;101514.22;6183418;23;19920;-71
2022/11/27 11:28:14;;;;;;;;;;;;;;;-2.16;75.60;101514.78;6196338;23;19920;-71
2022/11/27 11:30:40;;;;;;;;;;;;;;;-2.14;75.83;101519.00;6180716;23;19967;-71
2022/11/27 11:33:12;;;;;;;;;;;;;;;-2.10;75.60;101516.88;6195352;23;19927;-71
2022/11/27 11:35:38;;;;;;;;;;;;;;;-2.07;75.29;101508.53;6183519;23;19926;-71
2022/11/27 11:38:05;;;;;;;;;;;;;;;-2.09;75.25;101502.47;6179434;23;19920;-71
2022/11/27 11:40:32;;;;;;;;;;;;;;;-2.05;75.12;101503.00;6152231;23;20262;-71
2022/11/27 11:42:59;;;;;;;;;;;;;;;-2.08;75.07;101511.34;6182843;23;19952;-71
2022/11/27 11:45:26;;;;;;;;;;;;;;;-2.15;74.96;101498.56;6172989;23;19936;-71
2022/11/27 11:47:54;;;;;;;;;;;;;;;-2.24;74.79;101512.00;6180458;23;19920;-70
2022/11/27 11:50:27;;;;;;;;;;;;;;;-2.41;74.82;101517.16;6151015;23;20011;-71
2022/11/27 11:52:57;;;;;;;;;;;;;;;-2.54;75.23;101504.06;6194198;23;19920;-71
2022/11/27 11:55:26;;;;;;;;;;;;;;;-2.57;75.53;101512.41;6145394;23;20340;-71
2022/11/27 11:58:09;;;;;;;;;;;;;;;-2.61;75.61;101519.06;6147840;23;20348;-71
2022/11/27 12:00:40;;;;;;;;;;;;;;;-2.63;75.22;101529.91;6173569;23;19968;-71
2022/11/27 12:03:29;;;;;;;;;;;;;;;-2.68;75.28;101524.16;6180316;23;19926;-72
2022/11/27 12:06:12;;;;;;;;;;;;;;;-2.68;75.35;101528.63;6145876;23;19943;-71
2022/11/27 12:08:45;;;;;;;;;;;;;;;-2.76;75.36;101530.22;6136316;23;19927;-72
2022/11/27 12:11:12;;;;;;;;;;;;;;;-2.78;75.62;101536.69;6151781;23;19966;-70
2022/11/27 12:13:43;;;;;;;;;;;;;;;-2.77;75.97;101533.03;6184076;23;19919;-71
2022/11/27 12:16:14;;;;;;;;;;;;;;;-2.77;76.13;101538.38;6125487;23;19920;-70
2022/11/27 12:18:44;;;;;;;;;;;;;;;-2.77;76.25;101547.28;6158199;23;19982;-72
2022/11/27 12:21:16;;;;;;;;;;;;;;;-2.79;76.44;101546.59;6170607;23;20398;-71
2022/11/27 12:23:50;;;;;;;;;;;;;;;-2.69;76.34;101543.88;6205975;23;20006;-71
2022/11/27 12:26:21;;;;;;;;;;;;;;;-2.71;76.41;101544.00;6181353;23;19966;-71
2022/11/27 12:28:57;;;;;;;;;;;;;;;-2.71;76.45;101549.38;6169889;23;20340;-70
2022/11/27 12:31:28;;;;;;;;;;;;;;;-2.80;76.63;101547.56;6174316;23;20010;-71
2022/11/27 12:33:58;;;;;;;;;;;;;;;-2.78;76.85;101548.28;6172264;23;20288;-71
2022/11/27 12:36:32;;;;;;;;;;;;;;;-2.75;76.85;101537.25;6170724;23;19920;-71